createdAt,value
2019-03-28T00:02:17.000Z,24.36
2019-03-28T00:12:14.000Z,24.31
2019-03-28T00:22:14.000Z,24.28
2019-03-28T00:32:14.000Z,24.22
2019-03-28T00:42:14.000Z,24.17
2019-03-28T00:52:14.000Z,24.1
2019-03-28T01:02:14.000Z,24.05
2019-03-28T01:12:14.000Z,24
2019-03-28T01:22:14.000Z,23.95
2019-03-28T01:32:14.000Z,23.92
2019-03-28T01:42:14.000Z,23.84
2019-03-28T01:52:14.000Z,23.83
2019-03-28T02:02:14.000Z,23.79
2019-03-28T02:12:14.000Z,23.73
2019-03-28T02:22:14.000Z,23.68
2019-03-28T02:32:14.000Z,23.62
2019-03-28T02:42:14.000Z,23.57
2019-03-28T02:52:14.000Z,23.53
2019-03-28T03:02:14.000Z,23.51
2019-03-28T03:12:14.000Z,23.45
2019-03-28T03:22:14.000Z,23.43
2019-03-28T03:32:14.000Z,23.33
2019-03-28T03:42:14.000Z,23.29
2019-03-28T03:52:15.000Z,23.27
2019-03-28T04:02:15.000Z,23.29
2019-03-28T04:12:15.000Z,23.22
2019-03-28T04:22:15.000Z,23.17
2019-03-28T04:32:15.000Z,23.14
2019-03-28T04:42:15.000Z,23.13
2019-03-28T04:52:15.000Z,23.1
2019-03-28T05:02:15.000Z,23.06
2019-03-28T05:12:15.000Z,23.08
2019-03-28T05:22:15.000Z,23.07
2019-03-28T05:32:15.000Z,23.08
2019-03-28T05:42:15.000Z,23.1
2019-03-28T05:52:15.000Z,23.12
2019-03-28T06:02:15.000Z,23.1
2019-03-28T06:12:15.000Z,23.12
2019-03-28T06:22:15.000Z,23.13
2019-03-28T06:32:15.000Z,23.13
2019-03-28T06:42:15.000Z,23.16
2019-03-28T06:52:15.000Z,23.16
2019-03-28T07:02:15.000Z,23.22
2019-03-28T07:12:15.000Z,23.22
2019-03-28T07:22:15.000Z,23.27
2019-03-28T07:32:15.000Z,23.28
2019-03-28T07:42:15.000Z,23.3
2019-03-28T07:52:15.000Z,23.28
2019-03-28T08:02:15.000Z,23.32
2019-03-28T08:12:15.000Z,23.35
2019-03-28T08:22:15.000Z,23.44
2019-03-28T08:32:15.000Z,23.51
2019-03-28T08:42:15.000Z,23.58
2019-03-28T08:52:15.000Z,23.63
2019-03-28T09:02:15.000Z,23.73
2019-03-28T09:12:15.000Z,23.78
2019-03-28T09:22:15.000Z,23.86
2019-03-28T09:32:15.000Z,23.88
2019-03-28T09:42:15.000Z,23.93
2019-03-28T09:52:15.000Z,24.05
2019-03-28T10:02:15.000Z,24.08
2019-03-28T10:12:15.000Z,24.1
2019-03-28T10:22:15.000Z,24.14
2019-03-28T10:32:15.000Z,24.19
2019-03-28T10:42:15.000Z,24.19
2019-03-28T10:52:15.000Z,24.22
2019-03-28T11:02:15.000Z,24.29
2019-03-28T11:12:15.000Z,24.31
2019-03-28T11:22:15.000Z,24.37
2019-03-28T11:32:15.000Z,24.38
2019-03-28T11:42:15.000Z,24.4
2019-03-28T11:52:15.000Z,24.45
2019-03-28T12:02:15.000Z,24.47
2019-03-28T12:12:16.000Z,24.48
2019-03-28T12:22:16.000Z,24.53
2019-03-28T12:32:16.000Z,24.54
2019-03-28T12:42:16.000Z,24.56
2019-03-28T12:52:16.000Z,24.59
2019-03-28T13:02:16.000Z,24.59
2019-03-28T13:12:16.000Z,24.6
2019-03-28T13:22:16.000Z,24.61
2019-03-28T13:32:16.000Z,24.63
2019-03-28T13:42:16.000Z,24.66
2019-03-28T13:52:16.000Z,24.64
2019-03-28T14:02:16.000Z,24.68
2019-03-28T14:12:16.000Z,24.69
2019-03-28T14:22:16.000Z,24.69
2019-03-28T14:32:16.000Z,24.71
2019-03-28T14:42:16.000Z,24.72
2019-03-28T14:52:16.000Z,24.69
2019-03-28T15:02:16.000Z,24.68
2019-03-28T15:12:16.000Z,24.67
2019-03-28T15:22:16.000Z,24.66
2019-03-28T15:32:16.000Z,24.67
2019-03-28T15:42:16.000Z,24.64
2019-03-28T15:52:16.000Z,24.65
2019-03-28T16:02:16.000Z,24.64
2019-03-28T16:12:16.000Z,24.59
2019-03-28T16:22:16.000Z,24.58
2019-03-28T16:32:16.000Z,24.52
2019-03-28T16:42:16.000Z,24.52
2019-03-28T16:52:16.000Z,24.49
2019-03-28T17:02:16.000Z,24.44
2019-03-28T17:12:16.000Z,24.43
2019-03-28T17:22:16.000Z,24.4
2019-03-28T17:32:16.000Z,24.36
2019-03-28T17:42:16.000Z,24.31
2019-03-28T17:52:16.000Z,24.31
2019-03-28T18:02:16.000Z,24.26
2019-03-28T18:12:16.000Z,24.25
2019-03-28T18:22:16.000Z,24.22
2019-03-28T18:32:16.000Z,24.23
2019-03-28T18:42:16.000Z,24.2
2019-03-28T18:52:16.000Z,24.15
2019-03-28T19:02:16.000Z,24.2
2019-03-28T19:12:19.000Z,24.2
2019-03-28T19:22:16.000Z,24.2
2019-03-28T19:32:16.000Z,24.18
2019-03-28T19:42:16.000Z,24.18
2019-03-28T19:52:17.000Z,24.22
2019-03-28T20:02:16.000Z,24.17
2019-03-28T20:12:16.000Z,24.16
2019-03-28T20:22:16.000Z,24.13
2019-03-28T20:32:17.000Z,24.16
2019-03-28T20:42:17.000Z,24.13
2019-03-28T20:52:17.000Z,24.14
2019-03-28T21:02:17.000Z,24.14
2019-03-28T21:12:17.000Z,24.12
2019-03-28T21:22:17.000Z,24.05
2019-03-28T21:32:17.000Z,24.05
2019-03-28T21:42:17.000Z,24.05
2019-03-28T21:52:17.000Z,24.05
2019-03-28T22:12:17.000Z,24.02
2019-03-28T22:22:17.000Z,24.04
2019-03-28T22:32:17.000Z,24
2019-03-28T22:42:17.000Z,23.97
2019-03-28T22:52:17.000Z,23.95
2019-03-28T23:02:17.000Z,23.88
2019-03-28T23:12:17.000Z,23.87
2019-03-28T23:22:17.000Z,23.83
2019-03-28T23:32:17.000Z,23.8
2019-03-28T23:42:17.000Z,23.74
2019-03-28T23:52:17.000Z,23.71
